createdAt,value
2023-05-18T00:02:09.167Z,59.16
2023-05-18T00:05:11.097Z,58.89
2023-05-18T00:08:12.414Z,58.98
2023-05-18T00:11:13.974Z,58.58
2023-05-18T00:14:15.374Z,59.39
2023-05-18T00:17:17.642Z,59.53
2023-05-18T00:20:21.466Z,59.58
2023-05-18T00:23:24.206Z,60.09
2023-05-18T00:26:26.139Z,59.55
2023-05-18T00:29:27.798Z,59.57
2023-05-18T00:32:30.166Z,59.98
2023-05-18T00:35:32.237Z,60.57
2023-05-18T00:38:34.196Z,61.00
2023-05-18T00:41:35.625Z,60.81
2023-05-18T00:44:37.144Z,60.60
2023-05-18T00:47:39.331Z,61.55
2023-05-18T00:50:40.740Z,61.91
2023-05-18T00:53:44.386Z,61.63
2023-05-18T00:56:47.667Z,61.92
2023-05-18T00:59:49.297Z,61.62
2023-05-18T01:02:52.209Z,61.26
2023-05-18T01:05:55.158Z,62.21
2023-05-18T01:08:56.716Z,61.83
2023-05-18T01:12:05.026Z,62.38
2023-05-18T01:15:10.209Z,61.71
2023-05-18T01:18:21.021Z,62.07
2023-05-18T01:21:33.236Z,63.00
2023-05-18T01:24:42.096Z,62.78
2023-05-18T01:27:46.666Z,62.64
2023-05-18T01:30:48.635Z,62.48
2023-05-18T01:33:50.210Z,62.82
2023-05-18T01:36:51.716Z,62.44
2023-05-18T01:39:53.123Z,62.71
2023-05-18T01:43:03.402Z,62.87
2023-05-18T01:46:13.455Z,63.50
2023-05-18T01:49:20.575Z,63.46
2023-05-18T01:52:29.253Z,63.54
2023-05-18T01:55:31.890Z,63.51
2023-05-18T01:58:35.367Z,63.87
2023-05-18T02:01:36.787Z,64.38
2023-05-18T02:04:38.326Z,64.06
2023-05-18T02:07:40.225Z,63.72
2023-05-18T02:10:41.610Z,64.54
2023-05-18T02:13:43.760Z,64.33
2023-05-18T02:16:46.472Z,64.30
2023-05-18T02:19:47.988Z,64.74
2023-05-18T02:22:49.902Z,65.08
2023-05-18T02:25:51.409Z,65.01
2023-05-18T02:28:53.570Z,64.62
2023-05-18T02:31:54.991Z,65.30
2023-05-18T02:34:56.543Z,65.46
2023-05-18T02:37:57.861Z,64.99
2023-05-18T02:40:59.303Z,65.00
2023-05-18T02:44:02.627Z,65.27
2023-05-18T02:47:04.432Z,64.49
2023-05-18T02:50:07.070Z,65.40
2023-05-18T02:53:08.372Z,65.37
2023-05-18T02:56:11.686Z,65.29
2023-05-18T02:59:14.653Z,65.70
2023-05-18T03:02:16.087Z,65.21
2023-05-18T03:05:22.967Z,65.84
2023-05-18T03:08:26.183Z,65.61
2023-05-18T03:11:27.495Z,66.63
2023-05-18T03:14:29.480Z,67.03
2023-05-18T03:17:30.996Z,66.75
2023-05-18T03:20:32.696Z,66.07
2023-05-18T03:23:34.167Z,66.48
2023-05-18T03:26:35.637Z,66.75
2023-05-18T03:29:37.654Z,66.53
2023-05-18T03:32:40.875Z,66.32
2023-05-18T03:35:42.346Z,66.52
2023-05-18T03:38:45.110Z,67.01
2023-05-18T03:41:46.707Z,67.15
2023-05-18T03:44:48.671Z,67.60
2023-05-18T03:47:50.721Z,67.04
2023-05-18T03:50:52.359Z,66.65
2023-05-18T03:53:53.666Z,66.50
2023-05-18T03:56:55.234Z,66.11
2023-05-18T03:59:57.413Z,66.19
2023-05-18T04:02:59.854Z,65.85
2023-05-18T04:06:01.262Z,65.59
2023-05-18T04:09:04.083Z,66.27
2023-05-18T04:12:06.238Z,66.18
2023-05-18T04:15:09.552Z,65.68
2023-05-18T04:18:12.547Z,64.28
2023-05-18T04:21:15.298Z,64.35
2023-05-18T04:24:16.669Z,63.75
2023-05-18T04:27:19.698Z,62.27
2023-05-18T04:30:22.700Z,62.60
2023-05-18T04:33:24.260Z,62.25
2023-05-18T04:36:29.916Z,62.10
2023-05-18T04:39:32.041Z,60.12
2023-05-18T04:42:34.886Z,62.14
2023-05-18T04:45:37.086Z,60.15
2023-05-18T04:48:38.528Z,60.36
2023-05-18T04:51:41.321Z,60.80
2023-05-18T04:54:42.786Z,57.96
2023-05-18T04:57:44.263Z,56.89
2023-05-18T05:00:46.250Z,56.63
2023-05-18T05:03:47.851Z,56.23
2023-05-18T05:06:49.298Z,55.02
2023-05-18T05:09:50.919Z,53.81
2023-05-18T05:12:52.487Z,52.00
2023-05-18T05:15:55.317Z,52.04
2023-05-18T05:18:57.486Z,49.49
2023-05-18T05:21:59.832Z,50.04
2023-05-18T05:25:03.851Z,48.70
2023-05-18T05:28:07.462Z,47.91
2023-05-18T05:31:10.022Z,48.83
2023-05-18T05:34:13.019Z,47.77
2023-05-18T05:37:14.885Z,46.32
2023-05-18T05:40:16.451Z,46.87
2023-05-18T05:43:17.851Z,45.36
2023-05-18T05:46:20.054Z,46.23
2023-05-18T05:49:21.538Z,45.43
2023-05-18T05:52:22.855Z,44.48
2023-05-18T05:55:24.536Z,44.65
2023-05-18T05:58:25.847Z,44.42
2023-05-18T06:01:28.402Z,45.04
2023-05-18T06:04:30.111Z,44.28
2023-05-18T06:07:31.495Z,43.53
2023-05-18T06:10:33.004Z,41.26
2023-05-18T06:13:34.471Z,41.66
2023-05-18T06:16:36.649Z,41.15
2023-05-18T06:19:38.120Z,41.71
2023-05-18T06:22:39.502Z,41.44
2023-05-18T06:25:40.980Z,39.50
2023-05-18T06:28:42.700Z,38.57
2023-05-18T06:31:45.069Z,37.65
2023-05-18T06:34:46.583Z,38.80
2023-05-18T06:37:47.932Z,39.48
2023-05-18T06:40:49.455Z,39.38
2023-05-18T06:43:50.835Z,38.33
2023-05-18T06:46:53.024Z,37.95
2023-05-18T06:49:54.371Z,37.17
2023-05-18T06:52:55.816Z,36.71
2023-05-18T06:55:57.335Z,38.02
2023-05-18T06:59:00.360Z,37.05
2023-05-18T07:02:03.162Z,34.81
2023-05-18T07:05:08.156Z,37.48
2023-05-18T07:08:09.703Z,35.96
2023-05-18T07:11:11.494Z,35.62
2023-05-18T07:14:12.828Z,34.12
2023-05-18T07:17:15.241Z,33.16
2023-05-18T07:20:16.609Z,33.89
2023-05-18T07:23:17.969Z,32.08
2023-05-18T07:26:19.358Z,32.29
2023-05-18T07:29:20.726Z,31.81
2023-05-18T07:32:23.042Z,32.66
2023-05-18T07:35:25.663Z,32.39
2023-05-18T07:38:27.496Z,30.08
2023-05-18T07:41:30.514Z,31.19
2023-05-18T07:44:32.015Z,32.25
2023-05-18T07:47:34.189Z,31.75
2023-05-18T07:50:36.078Z,31.07
2023-05-18T07:53:37.732Z,30.11
2023-05-18T07:56:39.910Z,28.77
2023-05-18T07:59:41.513Z,28.49
2023-05-18T08:02:44.395Z,28.40
2023-05-18T08:05:46.062Z,29.46
2023-05-18T08:08:47.729Z,29.83
2023-05-18T08:11:50.346Z,32.27
2023-05-18T08:14:51.961Z,32.44
2023-05-18T08:17:54.388Z,33.00
2023-05-18T08:20:56.228Z,32.72
2023-05-18T08:23:57.722Z,33.61
2023-05-18T08:26:59.292Z,34.20
2023-05-18T08:30:01.109Z,34.61
2023-05-18T08:33:03.544Z,35.35
2023-05-18T08:36:05.713Z,35.37
2023-05-18T08:39:08.119Z,34.24
2023-05-18T08:42:16.258Z,33.07
2023-05-18T08:45:24.293Z,34.30
2023-05-18T08:48:28.403Z,34.38
2023-05-18T08:51:34.044Z,34.16
2023-05-18T08:54:37.011Z,33.58
2023-05-18T08:57:39.359Z,33.83
2023-05-18T09:00:41.028Z,33.54
2023-05-18T09:03:44.191Z,31.88
2023-05-18T09:06:47.535Z,31.87
2023-05-18T09:09:49.463Z,32.31
2023-05-18T09:12:51.955Z,32.06
2023-05-18T09:15:53.475Z,32.33
2023-05-18T09:18:55.502Z,33.33
2023-05-18T09:21:56.972Z,33.71
2023-05-18T09:24:58.935Z,33.20
2023-05-18T09:28:00.283Z,34.13
2023-05-18T09:31:01.807Z,34.43
2023-05-18T09:34:05.671Z,35.68
2023-05-18T09:37:08.956Z,34.14
2023-05-18T09:40:11.163Z,33.84
2023-05-18T09:43:12.480Z,34.31
2023-05-18T09:46:14.404Z,34.28
2023-05-18T09:49:22.145Z,34.56
2023-05-18T09:52:23.676Z,34.28
2023-05-18T09:55:25.412Z,33.66
2023-05-18T09:58:31.496Z,33.10
2023-05-18T10:01:34.122Z,33.47
2023-05-18T10:04:37.096Z,34.92
2023-05-18T10:07:43.366Z,33.71
2023-05-18T10:10:46.587Z,33.46
2023-05-18T10:13:53.800Z,31.40
2023-05-18T10:17:03.576Z,29.02
2023-05-18T10:20:18.556Z,28.32
2023-05-18T10:23:21.420Z,29.02
2023-05-18T10:26:28.210Z,30.86
2023-05-18T10:29:31.480Z,31.69
2023-05-18T10:32:36.345Z,31.59
2023-05-18T10:35:38.885Z,32.22
2023-05-18T10:38:44.668Z,32.40
2023-05-18T10:41:47.992Z,31.88
2023-05-18T10:44:52.260Z,29.88
2023-05-18T10:47:56.876Z,27.98
2023-05-18T10:50:58.940Z,27.21
2023-05-18T10:54:11.981Z,25.81
2023-05-18T10:57:16.012Z,26.10
2023-05-18T11:00:19.410Z,25.83
2023-05-18T11:03:21.612Z,25.35
2023-05-18T11:06:24.500Z,27.23
2023-05-18T11:09:28.069Z,28.60
2023-05-18T11:12:33.238Z,28.17
2023-05-18T11:16:06.260Z,26.34
2023-05-18T11:19:10.698Z,26.42
2023-05-18T11:22:12.838Z,26.94
2023-05-18T11:25:36.540Z,28.24
2023-05-18T11:28:43.233Z,28.23
2023-05-18T11:31:45.108Z,28.76
2023-05-18T11:34:50.649Z,29.49
2023-05-18T11:37:53.209Z,27.99
2023-05-18T11:41:00.073Z,26.51
2023-05-18T11:44:17.982Z,27.79
2023-05-18T11:47:19.593Z,27.23
2023-05-18T11:50:21.194Z,27.30
2023-05-18T11:53:24.202Z,26.98
2023-05-18T11:56:26.521Z,27.53
2023-05-18T11:59:32.216Z,28.24
2023-05-18T12:02:34.488Z,28.77
2023-05-18T12:05:36.451Z,28.77
2023-05-18T12:08:43.229Z,28.86
2023-05-18T12:11:44.890Z,28.96
2023-05-18T12:14:57.603Z,29.09
2023-05-18T12:17:59.191Z,29.07
2023-05-18T12:21:04.024Z,28.16
2023-05-18T12:24:06.816Z,28.82
2023-05-18T12:27:09.985Z,28.97
2023-05-18T12:30:13.077Z,28.29
2023-05-18T12:33:14.600Z,27.37
2023-05-18T12:36:16.291Z,26.37
2023-05-18T12:39:18.323Z,26.15
2023-05-18T12:42:19.948Z,25.88
2023-05-18T12:45:23.474Z,26.57
2023-05-18T12:48:25.869Z,26.88
2023-05-18T12:51:32.451Z,26.87
2023-05-18T12:54:34.517Z,25.78
2023-05-18T12:57:40.914Z,25.84
2023-05-18T13:00:43.348Z,26.01
2023-05-18T13:03:44.781Z,25.84
2023-05-18T13:06:47.717Z,27.13
2023-05-18T13:09:49.906Z,26.43
2023-05-18T13:12:52.163Z,27.35
2023-05-18T13:15:53.601Z,28.43
2023-05-18T13:19:00.489Z,28.79
2023-05-18T13:22:02.026Z,28.92
2023-05-18T13:25:05.044Z,28.60
2023-05-18T13:28:07.023Z,27.82
2023-05-18T13:31:09.372Z,27.88
2023-05-18T13:34:12.030Z,26.57
2023-05-18T13:37:14.774Z,27.14
2023-05-18T13:40:18.227Z,27.25
2023-05-18T13:43:19.598Z,27.21
2023-05-18T13:46:21.208Z,27.22
2023-05-18T13:49:22.720Z,27.68
2023-05-18T13:52:24.104Z,27.40
2023-05-18T13:55:26.280Z,27.89
2023-05-18T13:58:27.679Z,28.80
2023-05-18T14:01:31.860Z,29.02
2023-05-18T14:04:33.406Z,28.41
2023-05-18T14:07:34.821Z,28.45
2023-05-18T14:10:36.952Z,30.26
2023-05-18T14:13:38.273Z,30.30
2023-05-18T14:16:39.859Z,30.77
2023-05-18T14:19:41.415Z,31.04
2023-05-18T14:22:42.758Z,30.13
2023-05-18T14:25:45.355Z,29.66
2023-05-18T14:28:46.671Z,28.55
2023-05-18T14:31:48.091Z,28.66
2023-05-18T14:34:51.387Z,27.28
2023-05-18T14:37:52.739Z,27.38
2023-05-18T14:40:55.035Z,28.09
2023-05-18T14:43:56.439Z,28.43
2023-05-18T14:46:58.032Z,28.95
2023-05-18T14:49:59.532Z,28.86
2023-05-18T14:53:00.827Z,28.17
2023-05-18T14:56:07.975Z,27.25
2023-05-18T14:59:09.322Z,27.95
2023-05-18T15:02:10.804Z,27.34
2023-05-18T15:05:12.279Z,27.51
2023-05-18T15:08:13.654Z,27.52
2023-05-18T15:11:15.672Z,27.96
2023-05-18T15:14:17.007Z,28.41
2023-05-18T15:17:18.388Z,28.82
2023-05-18T15:20:19.988Z,29.10
2023-05-18T15:23:21.345Z,29.38
2023-05-18T15:26:23.472Z,29.02
2023-05-18T15:29:25.358Z,28.58
2023-05-18T15:32:29.775Z,28.58
2023-05-18T15:35:31.659Z,29.26
2023-05-18T15:38:33.008Z,28.66
2023-05-18T15:41:35.331Z,28.77
2023-05-18T15:44:36.838Z,29.02
2023-05-18T15:47:38.351Z,28.92
2023-05-18T15:50:39.723Z,28.86
2023-05-18T15:53:42.473Z,28.51
2023-05-18T15:56:44.512Z,28.85
2023-05-18T15:59:45.825Z,28.76
2023-05-18T16:02:47.347Z,29.17
2023-05-18T16:05:49.447Z,29.57
2023-05-18T16:08:50.877Z,30.23
2023-05-18T16:11:52.998Z,30.08
2023-05-18T16:14:54.367Z,30.20
2023-05-18T16:17:55.957Z,29.43
2023-05-18T16:20:57.546Z,29.43
2023-05-18T16:23:59.372Z,30.23
2023-05-18T16:27:01.570Z,30.05
2023-05-18T16:30:03.328Z,30.21
2023-05-18T16:33:04.829Z,30.46
2023-05-18T16:36:07.168Z,30.70
2023-05-18T16:39:08.671Z,30.74
2023-05-18T16:42:11.712Z,30.39
2023-05-18T16:45:13.065Z,30.00
2023-05-18T16:48:14.525Z,31.12
2023-05-18T16:51:15.925Z,30.78
2023-05-18T16:54:17.401Z,30.64
2023-05-18T16:57:20.671Z,31.06
2023-05-18T17:00:22.066Z,31.09
2023-05-18T17:03:24.007Z,31.06
2023-05-18T17:06:25.734Z,30.76
2023-05-18T17:09:27.234Z,31.30
2023-05-18T17:12:29.766Z,31.84
2023-05-18T17:15:31.809Z,32.01
2023-05-18T17:18:33.625Z,32.35
2023-05-18T17:21:35.070Z,31.98
2023-05-18T17:24:36.736Z,32.25
2023-05-18T17:27:39.277Z,32.31
2023-05-18T17:30:40.603Z,32.18
2023-05-18T17:33:46.357Z,32.28
2023-05-18T17:36:48.127Z,33.00
2023-05-18T17:39:49.646Z,33.24
2023-05-18T17:42:51.850Z,33.76
2023-05-18T17:45:53.270Z,34.13
2023-05-18T17:48:55.227Z,34.89
2023-05-18T17:51:57.051Z,34.36
2023-05-18T17:54:58.575Z,34.47
2023-05-18T17:58:01.662Z,35.16
2023-05-18T18:01:03.273Z,35.68
2023-05-18T18:04:05.098Z,35.35
2023-05-18T18:07:06.487Z,35.59
2023-05-18T18:10:08.826Z,35.86
2023-05-18T18:13:10.830Z,36.31
2023-05-18T18:16:12.430Z,36.73
2023-05-18T18:19:14.311Z,37.41
2023-05-18T18:22:15.673Z,37.65
2023-05-18T18:25:17.155Z,38.77
2023-05-18T18:28:19.112Z,39.55
2023-05-18T18:31:20.459Z,39.93
2023-05-18T18:34:21.873Z,40.37
2023-05-18T18:37:23.334Z,40.82
2023-05-18T18:40:24.992Z,41.47
2023-05-18T18:43:27.428Z,42.04
2023-05-18T18:46:28.959Z,42.58
2023-05-18T18:49:30.585Z,42.83
2023-05-18T18:52:31.921Z,43.26
2023-05-18T18:55:33.617Z,43.57
2023-05-18T18:58:36.039Z,44.28
2023-05-18T19:01:37.726Z,44.44
2023-05-18T19:04:39.203Z,44.72
2023-05-18T19:07:40.742Z,44.87
2023-05-18T19:10:45.051Z,44.90
2023-05-18T19:13:47.041Z,45.16
2023-05-18T19:16:48.720Z,45.36
2023-05-18T19:19:51.480Z,45.74
2023-05-18T19:22:52.991Z,46.09
2023-05-18T19:25:54.397Z,45.98
2023-05-18T19:28:56.566Z,46.67
2023-05-18T19:31:58.258Z,46.60
2023-05-18T19:34:59.634Z,47.28
2023-05-18T19:38:01.725Z,46.85
2023-05-18T19:41:03.113Z,47.21
2023-05-18T19:44:05.174Z,47.39
2023-05-18T19:47:07.205Z,47.98
2023-05-18T19:50:09.617Z,48.05
2023-05-18T19:53:11.046Z,48.11
2023-05-18T19:56:12.621Z,48.75
2023-05-18T19:59:14.903Z,49.37
2023-05-18T20:02:16.321Z,49.21
2023-05-18T20:05:17.930Z,48.40
2023-05-18T20:08:19.499Z,48.24
2023-05-18T20:11:20.968Z,47.85
2023-05-18T20:14:23.322Z,47.73
2023-05-18T20:17:25.426Z,47.40
2023-05-18T20:20:29.630Z,47.71
2023-05-18T20:23:31.004Z,48.01
2023-05-18T20:26:32.473Z,48.26
2023-05-18T20:29:34.417Z,48.91
2023-05-18T20:32:35.913Z,49.65
2023-05-18T20:35:37.329Z,50.02
2023-05-18T20:38:38.901Z,49.83
2023-05-18T20:41:40.970Z,50.14
2023-05-18T20:44:42.975Z,50.48
2023-05-18T20:47:44.694Z,50.62
2023-05-18T20:50:45.998Z,50.66
2023-05-18T20:53:47.368Z,51.17
2023-05-18T20:56:50.530Z,51.20
2023-05-18T20:59:52.539Z,51.08
2023-05-18T21:02:54.165Z,51.22
2023-05-18T21:05:55.803Z,51.83
2023-05-18T21:08:57.379Z,51.14
2023-05-18T21:11:59.002Z,51.05
2023-05-18T21:15:01.213Z,51.42
2023-05-18T21:18:02.907Z,51.98
2023-05-18T21:21:04.422Z,52.42
2023-05-18T21:24:06.209Z,51.73
2023-05-18T21:27:07.636Z,52.60
2023-05-18T21:30:11.838Z,52.71
2023-05-18T21:33:13.418Z,51.89
2023-05-18T21:36:14.914Z,52.67
2023-05-18T21:39:16.367Z,51.99
2023-05-18T21:42:17.740Z,52.13
2023-05-18T21:45:21.897Z,52.53
2023-05-18T21:48:23.227Z,52.53
2023-05-18T21:51:24.842Z,53.01
2023-05-18T21:54:29.698Z,53.74
2023-05-18T21:57:33.209Z,52.32
2023-05-18T22:00:36.995Z,53.80
2023-05-18T22:03:39.042Z,53.68
2023-05-18T22:06:40.711Z,54.50
2023-05-18T22:09:42.061Z,53.72
2023-05-18T22:12:43.602Z,54.04
2023-05-18T22:15:45.942Z,53.90
2023-05-18T22:18:47.308Z,54.32
2023-05-18T22:21:48.776Z,53.68
2023-05-18T22:24:50.158Z,54.19
2023-05-18T22:27:52.087Z,54.54
2023-05-18T22:30:54.237Z,53.70
2023-05-18T22:33:55.600Z,55.04
2023-05-18T22:36:57.063Z,54.61
2023-05-18T22:39:58.388Z,54.61
2023-05-18T22:42:59.833Z,55.02
2023-05-18T22:46:01.861Z,54.68
2023-05-18T22:49:04.840Z,54.83
2023-05-18T22:52:07.472Z,54.85
2023-05-18T22:55:12.537Z,54.71
2023-05-18T22:58:14.037Z,54.98
2023-05-18T23:01:16.206Z,54.86
2023-05-18T23:04:18.961Z,55.53
2023-05-18T23:07:21.486Z,55.70
2023-05-18T23:10:25.582Z,55.71
2023-05-18T23:13:27.129Z,56.29
2023-05-18T23:16:29.216Z,56.27
2023-05-18T23:19:31.052Z,56.02
2023-05-18T23:22:32.878Z,56.65
2023-05-18T23:25:34.305Z,56.31
2023-05-18T23:28:36.025Z,57.28
2023-05-18T23:31:38.257Z,56.92
2023-05-18T23:34:40.761Z,56.61
2023-05-18T23:37:42.437Z,57.19
2023-05-18T23:40:44.716Z,57.21
2023-05-18T23:43:46.695Z,57.06
2023-05-18T23:46:49.396Z,56.98
2023-05-18T23:49:51.347Z,56.93
2023-05-18T23:52:53.837Z,56.44
2023-05-18T23:55:57.026Z,56.02
2023-05-18T23:59:01.046Z,56.21
